createdAt,value
2022-11-21T00:00:37.579Z,1001.73
2022-11-21T00:01:37.645Z,1001.72
2022-11-21T00:02:37.495Z,1001.67
2022-11-21T00:03:37.462Z,1001.68
2022-11-21T00:04:37.416Z,1001.64
2022-11-21T00:05:37.420Z,1001.64
2022-11-21T00:06:37.371Z,1001.66
2022-11-21T00:07:37.391Z,1001.62
2022-11-21T00:08:37.265Z,1001.58
2022-11-21T00:09:37.228Z,1001.55
2022-11-21T00:10:37.183Z,1001.56
2022-11-21T00:11:37.152Z,1001.57
2022-11-21T00:12:37.175Z,1001.52
2022-11-21T00:13:37.142Z,1001.53
2022-11-21T00:14:37.032Z,1001.50
2022-11-21T00:15:37.005Z,1001.53
2022-11-21T00:16:36.976Z,1001.52
2022-11-21T00:17:36.910Z,1001.51
2022-11-21T00:18:36.881Z,1001.51
2022-11-21T00:19:36.892Z,1001.48
2022-11-21T00:20:36.797Z,1001.50
2022-11-21T00:21:36.773Z,1001.46
2022-11-21T00:22:36.732Z,1001.44
2022-11-21T00:23:36.701Z,1001.45
2022-11-21T00:24:36.638Z,1001.42
2022-11-21T00:25:36.697Z,1001.42
2022-11-21T00:26:36.567Z,1001.38
2022-11-21T00:27:36.529Z,1001.32
2022-11-21T00:28:36.498Z,1001.36
2022-11-21T00:29:36.456Z,1001.31
2022-11-21T00:30:36.415Z,1001.34
2022-11-21T00:31:36.429Z,1001.34
2022-11-21T00:32:36.341Z,1001.30
2022-11-21T00:33:36.302Z,1001.29
2022-11-21T00:34:36.278Z,1001.25
2022-11-21T00:35:36.241Z,1001.25
2022-11-21T00:36:36.194Z,1001.24
2022-11-21T00:37:36.198Z,1001.23
2022-11-21T00:38:36.106Z,1001.24
2022-11-21T00:39:36.075Z,1001.24
2022-11-21T00:40:36.026Z,1001.25
2022-11-21T00:41:35.991Z,1001.20
2022-11-21T00:42:35.946Z,1001.16
2022-11-21T00:43:35.977Z,1001.17
2022-11-21T00:44:35.867Z,1001.12
2022-11-21T00:45:35.851Z,1001.14
2022-11-21T00:46:35.803Z,1001.09
2022-11-21T00:47:35.774Z,1001.12
2022-11-21T00:48:35.790Z,1001.10
2022-11-21T00:49:35.681Z,1001.08
2022-11-21T00:50:35.639Z,1001.10
2022-11-21T00:51:35.599Z,1001.07
2022-11-21T00:52:35.575Z,1001.05
2022-11-21T00:53:35.526Z,1001.06
2022-11-21T00:54:35.583Z,1001.11
2022-11-21T00:55:35.454Z,1001.07
2022-11-21T00:56:35.525Z,1001.02
2022-11-21T00:57:35.376Z,1001.06
2022-11-21T00:58:35.332Z,1001.05
2022-11-21T00:59:35.302Z,1001.05
2022-11-21T01:00:35.350Z,1001.02
2022-11-21T01:01:35.233Z,1001.03
2022-11-21T01:02:35.179Z,1001.02
2022-11-21T01:03:35.204Z,1001.06
2022-11-21T01:04:35.112Z,1001.07
2022-11-21T01:05:35.073Z,1001.08
2022-11-21T01:06:35.031Z,1001.08
2022-11-21T01:07:35.100Z,1001.07
2022-11-21T01:08:35.016Z,1001.16
2022-11-21T01:09:34.913Z,1001.09
2022-11-21T01:10:34.882Z,1001.10
2022-11-21T01:11:34.836Z,1001.10
2022-11-21T01:12:34.831Z,1001.11
2022-11-21T01:13:34.767Z,1001.09
2022-11-21T01:14:34.833Z,1001.13
2022-11-21T01:15:34.683Z,1001.11
2022-11-21T01:16:34.645Z,1001.09
2022-11-21T01:17:34.611Z,1001.07
2022-11-21T01:18:34.586Z,1001.06
2022-11-21T01:19:34.539Z,1001.12
2022-11-21T01:20:34.539Z,1001.02
2022-11-21T01:21:34.461Z,1001.01
2022-11-21T01:22:34.429Z,1001.02
2022-11-21T01:23:34.388Z,1000.98
2022-11-21T01:24:34.331Z,1000.97
2022-11-21T01:25:34.294Z,1000.96
2022-11-21T01:26:34.317Z,1000.89
2022-11-21T01:27:34.221Z,1000.92
2022-11-21T01:28:34.186Z,1000.85
2022-11-21T01:29:34.137Z,1000.88
2022-11-21T01:30:34.113Z,1000.86
2022-11-21T01:31:34.071Z,1000.87
2022-11-21T01:32:34.109Z,1000.84
2022-11-21T01:33:33.993Z,1000.84
2022-11-21T01:34:33.962Z,1000.81
2022-11-21T01:35:33.919Z,1000.85
2022-11-21T01:36:33.882Z,1000.82
2022-11-21T01:37:33.853Z,1000.82
2022-11-21T01:38:33.876Z,1000.85
2022-11-21T01:39:33.791Z,1000.81
2022-11-21T01:40:33.757Z,1000.87
2022-11-21T01:41:33.756Z,1000.87
2022-11-21T01:42:33.699Z,1000.85
2022-11-21T01:43:33.612Z,1000.84
2022-11-21T01:44:33.636Z,1000.86
2022-11-21T01:45:33.564Z,1000.86
2022-11-21T01:46:33.538Z,1000.87
2022-11-21T01:47:33.478Z,1000.87
2022-11-21T01:48:33.416Z,1000.85
2022-11-21T01:49:33.401Z,1000.86
2022-11-21T01:50:33.412Z,1000.90
2022-11-21T01:51:33.360Z,1000.90
2022-11-21T01:52:33.265Z,1000.88
2022-11-21T01:53:33.345Z,1000.85
2022-11-21T01:54:33.269Z,1000.84
2022-11-21T01:55:33.299Z,1000.85
2022-11-21T01:56:33.257Z,1000.84
2022-11-21T01:57:33.070Z,1000.79
2022-11-21T01:58:33.036Z,1000.79
2022-11-21T01:59:32.999Z,1000.81
2022-11-21T02:00:33.070Z,1000.79
2022-11-21T02:01:32.988Z,1000.80
2022-11-21T02:02:32.965Z,1000.77
2022-11-21T02:03:32.847Z,1000.78
2022-11-21T02:04:32.858Z,1000.73
2022-11-21T02:05:32.873Z,1000.72
2022-11-21T02:06:32.799Z,1000.71
2022-11-21T02:07:32.770Z,1000.72
2022-11-21T02:08:32.776Z,1000.71
2022-11-21T02:09:32.942Z,1000.70
2022-11-21T02:10:32.633Z,1000.71
2022-11-21T02:11:32.558Z,1000.72
2022-11-21T02:12:32.623Z,1000.70
2022-11-21T02:13:32.540Z,1000.66
2022-11-21T02:14:32.440Z,1000.63
2022-11-21T02:15:32.629Z,1000.66
2022-11-21T02:16:33.139Z,1000.67
2022-11-21T02:17:32.329Z,1000.65
2022-11-21T02:18:32.308Z,1000.68
2022-11-21T02:19:32.262Z,1000.66
2022-11-21T02:20:32.260Z,1000.67
2022-11-21T02:21:32.230Z,1000.62
2022-11-21T02:22:32.126Z,1000.66
2022-11-21T02:23:32.082Z,1000.68
2022-11-21T02:24:32.115Z,1000.64
2022-11-21T02:25:32.057Z,1000.62
2022-11-21T02:26:32.073Z,1000.65
2022-11-21T02:27:31.923Z,1000.63
2022-11-21T02:28:31.923Z,1000.62
2022-11-21T02:29:31.857Z,1000.66
2022-11-21T02:30:31.845Z,1000.67
2022-11-21T02:31:31.850Z,1000.66
2022-11-21T02:32:31.758Z,1000.66
2022-11-21T02:33:31.700Z,1000.66
2022-11-21T02:34:31.689Z,1000.62
2022-11-21T02:35:31.632Z,1000.62
2022-11-21T02:36:31.603Z,1000.63
2022-11-21T02:37:31.619Z,1000.59
2022-11-21T02:38:31.593Z,1000.56
2022-11-21T02:39:31.495Z,1000.56
2022-11-21T02:40:31.434Z,1000.49
2022-11-21T02:41:31.400Z,1000.49
2022-11-21T02:42:31.359Z,1000.48
2022-11-21T02:43:31.397Z,1000.43
2022-11-21T02:44:31.283Z,1000.44
2022-11-21T02:45:31.244Z,1000.45
2022-11-21T02:46:31.232Z,1000.50
2022-11-21T02:47:31.184Z,1000.46
2022-11-21T02:48:31.142Z,1000.44
2022-11-21T02:49:31.152Z,1000.39
2022-11-21T02:50:31.099Z,1000.40
2022-11-21T02:51:31.036Z,1000.35
2022-11-21T02:52:31.004Z,1000.35
2022-11-21T02:53:30.935Z,1000.30
2022-11-21T02:54:30.940Z,1000.29
2022-11-21T02:55:30.935Z,1000.25
2022-11-21T02:56:30.841Z,1000.28
2022-11-21T02:57:30.776Z,1000.28
2022-11-21T02:58:30.804Z,1000.32
2022-11-21T02:59:30.718Z,1000.29
2022-11-21T03:00:30.713Z,1000.25
2022-11-21T03:01:30.715Z,1000.29
2022-11-21T03:02:30.596Z,1000.28
2022-11-21T03:03:30.561Z,1000.28
2022-11-21T03:04:30.607Z,1000.30
2022-11-21T03:05:30.478Z,1000.28
2022-11-21T03:06:30.433Z,1000.28
2022-11-21T03:07:30.538Z,1000.30
2022-11-21T03:08:30.366Z,1000.31
2022-11-21T03:09:30.347Z,1000.34
2022-11-21T03:10:30.287Z,1000.28
2022-11-21T03:11:30.276Z,1000.28
2022-11-21T03:12:30.224Z,1000.30
2022-11-21T03:13:30.321Z,1000.27
2022-11-21T03:14:30.310Z,1000.30
2022-11-21T03:15:30.098Z,1000.29
2022-11-21T03:16:30.048Z,1000.32
2022-11-21T03:17:30.041Z,1000.31
2022-11-21T03:18:30.027Z,1000.29
2022-11-21T03:19:30.026Z,1000.32
2022-11-21T03:20:29.943Z,1000.29
2022-11-21T03:21:29.895Z,1000.33
2022-11-21T03:22:29.836Z,1000.31
2022-11-21T03:23:29.789Z,1000.31
2022-11-21T03:24:30.142Z,1000.32
2022-11-21T03:25:29.718Z,1000.34
2022-11-21T03:26:29.686Z,1000.31
2022-11-21T03:27:29.660Z,1000.30
2022-11-21T03:28:29.592Z,1000.33
2022-11-21T03:29:29.563Z,1000.37
2022-11-21T03:30:29.582Z,1000.39
2022-11-21T03:31:29.556Z,1000.38
2022-11-21T03:32:29.448Z,1000.38
2022-11-21T03:33:29.417Z,1000.40
2022-11-21T03:34:29.660Z,1000.40
2022-11-21T03:35:29.338Z,1000.40
2022-11-21T03:36:29.308Z,1000.42
2022-11-21T03:37:29.329Z,1000.41
2022-11-21T03:38:29.213Z,1000.43
2022-11-21T03:39:29.175Z,1000.38
2022-11-21T03:40:29.139Z,1000.41
2022-11-21T03:41:29.110Z,1000.40
2022-11-21T03:42:29.069Z,1000.39
2022-11-21T03:43:29.107Z,1000.44
2022-11-21T03:44:29.821Z,1000.44
2022-11-21T03:45:28.953Z,1000.46
2022-11-21T03:46:28.909Z,1000.44
2022-11-21T03:47:28.880Z,1000.46
2022-11-21T03:48:28.854Z,1000.44
2022-11-21T03:49:28.849Z,1000.44
2022-11-21T03:50:28.763Z,1000.47
2022-11-21T03:51:28.727Z,1000.48
2022-11-21T03:52:28.683Z,1000.49
2022-11-21T03:53:28.638Z,1000.45
2022-11-21T03:54:28.864Z,1000.50
2022-11-21T03:55:28.639Z,1000.48
2022-11-21T03:56:28.572Z,1000.46
2022-11-21T03:57:28.538Z,1000.45
2022-11-21T03:58:28.448Z,1000.45
2022-11-21T03:59:28.417Z,1000.45
2022-11-21T04:00:28.375Z,1000.46
2022-11-21T04:01:32.434Z,1000.43
2022-11-21T04:02:28.288Z,1000.46
2022-11-21T04:03:28.251Z,1000.46
2022-11-21T04:04:28.440Z,1000.46
2022-11-21T04:05:28.192Z,1000.45
2022-11-21T04:06:28.145Z,1000.45
2022-11-21T04:07:28.204Z,1000.50
2022-11-21T04:08:28.068Z,1000.45
2022-11-21T04:09:28.022Z,1000.48
2022-11-21T04:10:27.997Z,1000.45
2022-11-21T04:11:27.989Z,1000.51
2022-11-21T04:12:27.920Z,1000.46
2022-11-21T04:13:27.955Z,1000.50
2022-11-21T04:14:27.953Z,1000.48
2022-11-21T04:15:27.815Z,1000.49
2022-11-21T04:16:27.769Z,1000.49
2022-11-21T04:17:27.732Z,1000.52
2022-11-21T04:18:27.690Z,1000.51
2022-11-21T04:19:27.708Z,1000.50
2022-11-21T04:20:27.607Z,1000.52
2022-11-21T04:21:27.560Z,1000.53
2022-11-21T04:22:27.527Z,1000.52
2022-11-21T04:23:27.491Z,1000.53
2022-11-21T04:24:27.736Z,1000.55
2022-11-21T04:25:27.485Z,1000.58
2022-11-21T04:26:27.382Z,1000.58
2022-11-21T04:27:27.345Z,1000.61
2022-11-21T04:28:27.291Z,1000.63
2022-11-21T04:29:27.274Z,1000.64
2022-11-21T04:30:27.215Z,1000.65
2022-11-21T04:31:27.253Z,1000.62
2022-11-21T04:32:27.148Z,1000.59
2022-11-21T04:33:27.102Z,1000.56
2022-11-21T04:34:27.559Z,1000.54
2022-11-21T04:35:27.030Z,1000.49
2022-11-21T04:36:27.012Z,1000.50
2022-11-21T04:37:27.012Z,1000.52
2022-11-21T04:38:26.954Z,1000.50
2022-11-21T04:39:26.872Z,1000.51
2022-11-21T04:40:26.831Z,1000.51
2022-11-21T04:41:26.787Z,1000.57
2022-11-21T04:42:26.759Z,1000.55
2022-11-21T04:43:26.812Z,1000.61
2022-11-21T04:44:26.923Z,1000.61
2022-11-21T04:45:26.641Z,1000.60
2022-11-21T04:46:26.597Z,1000.61
2022-11-21T04:47:26.569Z,1000.61
2022-11-21T04:48:26.525Z,1000.58
2022-11-21T04:49:26.541Z,1000.58
2022-11-21T04:50:26.448Z,1000.54
2022-11-21T04:51:26.402Z,1000.57
2022-11-21T04:52:26.360Z,1000.58
2022-11-21T04:53:26.340Z,1000.58
2022-11-21T04:54:26.644Z,1000.58
2022-11-21T04:55:26.310Z,1000.58
2022-11-21T04:56:26.203Z,1000.57
2022-11-21T04:57:26.174Z,1000.58
2022-11-21T04:58:26.150Z,1000.59
2022-11-21T04:59:26.107Z,1000.58
2022-11-21T05:00:26.053Z,1000.56
2022-11-21T05:01:26.161Z,1000.59
2022-11-21T05:02:26.007Z,1000.57
2022-11-21T05:03:25.954Z,1000.58
2022-11-21T05:04:26.142Z,1000.59
2022-11-21T05:05:25.859Z,1000.65
2022-11-21T05:06:25.816Z,1000.65
2022-11-21T05:07:25.878Z,1000.66
2022-11-21T05:08:25.740Z,1000.65
2022-11-21T05:09:25.767Z,1000.65
2022-11-21T05:10:25.675Z,1000.65
2022-11-21T05:11:25.621Z,1000.67
2022-11-21T05:12:25.598Z,1000.70
2022-11-21T05:13:25.629Z,1000.67
2022-11-21T05:14:25.727Z,1000.73
2022-11-21T05:15:25.483Z,1000.70
2022-11-21T05:16:25.490Z,1000.71
2022-11-21T05:17:25.395Z,1000.75
2022-11-21T05:18:25.373Z,1000.73
2022-11-21T05:19:25.319Z,1000.72
2022-11-21T05:20:25.280Z,1000.70
2022-11-21T05:21:25.292Z,1000.71
2022-11-21T05:22:25.282Z,1000.68
2022-11-21T05:23:25.161Z,1000.68
2022-11-21T05:24:25.231Z,1000.70
2022-11-21T05:25:25.074Z,1000.69
2022-11-21T05:26:25.041Z,1000.71
2022-11-21T05:27:25.092Z,1000.67
2022-11-21T05:28:24.962Z,1000.70
2022-11-21T05:29:28.051Z,1000.71
2022-11-21T05:30:24.898Z,1000.71
2022-11-21T05:31:24.839Z,1000.67
2022-11-21T05:32:24.809Z,1000.74
2022-11-21T05:33:24.835Z,1000.71
2022-11-21T05:34:24.740Z,1000.72
2022-11-21T05:35:24.693Z,1000.73
2022-11-21T05:36:24.681Z,1000.73
2022-11-21T05:37:24.659Z,1000.75
2022-11-21T05:38:24.617Z,1000.73
2022-11-21T05:39:24.529Z,1000.73
2022-11-21T05:40:24.495Z,1000.75
2022-11-21T05:41:25.174Z,1000.72
2022-11-21T05:42:24.412Z,1000.73
2022-11-21T05:43:24.379Z,1000.74
2022-11-21T05:44:24.403Z,1000.73
2022-11-21T05:45:24.288Z,1000.75
2022-11-21T05:46:24.268Z,1000.78
2022-11-21T05:47:24.218Z,1000.81
2022-11-21T05:48:24.172Z,1000.79
2022-11-21T05:49:24.139Z,1000.82
2022-11-21T05:50:24.165Z,1000.83
2022-11-21T05:51:24.094Z,1000.79
2022-11-21T05:52:24.024Z,1000.83
2022-11-21T05:53:24.035Z,1000.82
2022-11-21T05:54:23.970Z,1000.78
2022-11-21T05:55:23.933Z,1000.79
2022-11-21T05:56:24.778Z,1000.77
2022-11-21T05:57:23.820Z,1000.78
2022-11-21T05:58:23.792Z,1000.76
2022-11-21T05:59:23.754Z,1000.74
2022-11-21T06:00:23.717Z,1000.76
2022-11-21T06:01:23.674Z,1000.71
2022-11-21T06:02:23.670Z,1000.73
2022-11-21T06:03:23.631Z,1000.73
2022-11-21T06:04:23.563Z,1000.74
2022-11-21T06:05:23.512Z,1000.71
2022-11-21T06:06:25.018Z,1000.71
2022-11-21T06:07:23.471Z,1000.71
2022-11-21T06:08:23.393Z,1000.70
2022-11-21T06:09:23.362Z,1000.74
2022-11-21T06:10:23.321Z,1000.75
2022-11-21T06:11:23.347Z,1000.74
2022-11-21T06:12:25.665Z,1000.76
2022-11-21T06:13:23.219Z,1000.76
2022-11-21T06:14:23.165Z,1000.79
2022-11-21T06:15:23.145Z,1000.75
2022-11-21T06:16:23.084Z,1000.78
2022-11-21T06:17:23.107Z,1000.78
2022-11-21T06:18:23.002Z,1000.80
2022-11-21T06:19:22.968Z,1000.82
2022-11-21T06:20:22.932Z,1000.84
2022-11-21T06:21:22.890Z,1000.81
2022-11-21T06:22:22.853Z,1000.80
2022-11-21T06:23:22.882Z,1000.82
2022-11-21T06:24:22.770Z,1000.82
2022-11-21T06:25:22.734Z,1000.79
2022-11-21T06:26:23.282Z,1000.80
2022-11-21T06:27:22.740Z,1000.80
2022-11-21T06:28:22.621Z,1000.81
2022-11-21T06:29:22.636Z,1000.79
2022-11-21T06:30:22.594Z,1000.78
2022-11-21T06:31:22.512Z,1000.82
2022-11-21T06:32:22.528Z,1000.80
2022-11-21T06:33:22.420Z,1000.81
2022-11-21T06:34:22.494Z,1000.78
2022-11-21T06:35:22.344Z,1000.80
2022-11-21T06:36:22.313Z,1000.80
2022-11-21T06:37:22.267Z,1000.79
2022-11-21T06:38:22.285Z,1000.81
2022-11-21T06:39:22.252Z,1000.79
2022-11-21T06:40:22.153Z,1000.83
2022-11-21T06:41:22.113Z,1000.84
2022-11-21T06:42:22.075Z,1000.86
2022-11-21T06:43:22.033Z,1000.87
2022-11-21T06:44:22.045Z,1000.90
2022-11-21T06:45:22.785Z,1000.92
2022-11-21T06:46:21.926Z,1000.94
2022-11-21T06:47:21.881Z,1000.97
2022-11-21T06:48:21.865Z,1000.96
2022-11-21T06:49:21.905Z,1000.97
2022-11-21T06:50:21.761Z,1000.98
2022-11-21T06:51:21.725Z,1001.00
2022-11-21T06:52:21.696Z,1001.00
2022-11-21T06:53:21.642Z,1000.97
2022-11-21T06:54:21.603Z,1000.99
2022-11-21T06:55:21.629Z,1001.03
2022-11-21T06:56:21.526Z,1001.01
2022-11-21T06:57:21.495Z,1001.08
2022-11-21T06:58:21.449Z,1001.06
2022-11-21T06:59:21.413Z,1001.08
2022-11-21T07:00:21.371Z,1001.13
2022-11-21T07:01:21.495Z,1001.18
2022-11-21T07:02:21.298Z,1001.18
2022-11-21T07:03:21.252Z,1001.22
2022-11-21T07:04:21.228Z,1001.23
2022-11-21T07:05:21.189Z,1001.25
2022-11-21T07:06:21.237Z,1001.26
2022-11-21T07:07:21.135Z,1001.24
2022-11-21T07:08:21.068Z,1001.23
2022-11-21T07:09:36.392Z,1001.21
2022-11-21T07:10:20.983Z,1001.21
2022-11-21T07:11:25.351Z,1001.19
2022-11-21T07:12:20.904Z,1001.23
2022-11-21T07:13:20.879Z,1001.24
2022-11-21T07:14:20.832Z,1001.23
2022-11-21T07:15:20.794Z,1001.28
2022-11-21T07:16:20.757Z,1001.30
2022-11-21T07:17:20.768Z,1001.26
2022-11-21T07:18:20.714Z,1001.28
2022-11-21T07:19:20.639Z,1001.30
2022-11-21T07:20:20.601Z,1001.33
2022-11-21T07:21:20.561Z,1001.34
2022-11-21T07:22:20.585Z,1001.38
2022-11-21T07:23:20.483Z,1001.39
2022-11-21T07:24:20.436Z,1001.40
2022-11-21T07:25:20.411Z,1001.47
2022-11-21T07:26:20.373Z,1001.52
2022-11-21T07:27:20.330Z,1001.57
2022-11-21T07:28:20.356Z,1001.57
2022-11-21T07:29:20.247Z,1001.59
2022-11-21T07:30:20.210Z,1001.60
2022-11-21T07:31:20.166Z,1001.59
2022-11-21T07:32:20.132Z,1001.65
2022-11-21T07:33:20.090Z,1001.60
2022-11-21T07:34:20.127Z,1001.66
2022-11-21T07:35:20.022Z,1001.64
2022-11-21T07:36:19.970Z,1001.64
2022-11-21T07:37:19.935Z,1001.65
2022-11-21T07:38:19.912Z,1001.59
2022-11-21T07:39:19.922Z,1001.56
2022-11-21T07:40:19.818Z,1001.57
2022-11-21T07:41:19.778Z,1001.55
2022-11-21T07:42:19.748Z,1001.58
2022-11-21T07:43:19.701Z,1001.55
2022-11-21T07:44:19.668Z,1001.62
2022-11-21T07:45:20.286Z,1001.60
2022-11-21T07:46:19.584Z,1001.63
2022-11-21T07:47:19.538Z,1001.59
2022-11-21T07:48:19.505Z,1001.59
2022-11-21T07:49:19.477Z,1001.63
2022-11-21T07:50:19.484Z,1001.59
2022-11-21T07:51:19.375Z,1001.62
2022-11-21T07:52:19.335Z,1001.64
2022-11-21T07:53:19.305Z,1001.65
2022-11-21T07:54:19.269Z,1001.61
2022-11-21T07:55:19.232Z,1001.64
2022-11-21T07:56:19.243Z,1001.67
2022-11-21T07:57:19.145Z,1001.64
2022-11-21T07:58:19.108Z,1001.70
2022-11-21T07:59:19.679Z,1001.66
2022-11-21T08:00:19.031Z,1001.68
2022-11-21T08:01:20.482Z,1001.64
2022-11-21T08:02:19.014Z,1001.64
2022-11-21T08:03:18.905Z,1001.65
2022-11-21T08:04:18.884Z,1001.72
2022-11-21T08:05:18.827Z,1001.72
2022-11-21T08:06:18.910Z,1001.70
2022-11-21T08:07:18.826Z,1001.70
2022-11-21T08:08:18.729Z,1001.71
2022-11-21T08:09:18.687Z,1001.71
2022-11-21T08:10:18.646Z,1001.73
2022-11-21T08:11:18.599Z,1001.76
2022-11-21T08:12:18.620Z,1001.76
2022-11-21T08:13:18.517Z,1001.76
2022-11-21T08:14:18.494Z,1001.81
2022-11-21T08:15:18.464Z,1001.79
2022-11-21T08:16:18.408Z,1001.80
2022-11-21T08:17:18.440Z,1001.82
2022-11-21T08:18:18.323Z,1001.84
2022-11-21T08:19:18.467Z,1001.81
2022-11-21T08:20:18.263Z,1001.84
2022-11-21T08:21:19.912Z,1001.85
2022-11-21T08:22:18.177Z,1001.86
2022-11-21T08:23:18.199Z,1001.91
2022-11-21T08:24:18.095Z,1001.91
2022-11-21T08:25:18.056Z,1001.95
2022-11-21T08:26:18.027Z,1001.95
2022-11-21T08:27:17.978Z,1002.00
2022-11-21T08:28:17.942Z,1002.02
2022-11-21T08:29:17.961Z,1002.05
2022-11-21T08:30:17.938Z,1002.04
2022-11-21T08:31:17.824Z,1002.09
2022-11-21T08:32:17.848Z,1002.14
2022-11-21T08:33:17.743Z,1002.09
2022-11-21T08:34:17.714Z,1002.14
2022-11-21T08:35:17.738Z,1002.13
2022-11-21T08:36:17.631Z,1002.10
2022-11-21T08:37:17.680Z,1002.16
2022-11-21T08:38:17.549Z,1002.15
2022-11-21T08:39:17.512Z,1002.16
2022-11-21T08:40:17.472Z,1002.17
2022-11-21T08:41:17.997Z,1002.19
2022-11-21T08:42:17.454Z,1002.22
2022-11-21T08:43:17.375Z,1002.19
2022-11-21T08:44:17.318Z,1002.20
2022-11-21T08:45:17.274Z,1002.22
2022-11-21T08:46:17.302Z,1002.18
2022-11-21T08:47:17.268Z,1002.16
2022-11-21T08:48:17.177Z,1002.18
2022-11-21T08:49:17.116Z,1002.17
2022-11-21T08:50:17.081Z,1002.15
2022-11-21T08:51:17.040Z,1002.17
2022-11-21T08:52:17.003Z,1002.19
2022-11-21T08:53:17.031Z,1002.17
2022-11-21T08:54:16.934Z,1002.23
2022-11-21T08:55:16.891Z,1002.23
2022-11-21T08:56:16.844Z,1002.25
2022-11-21T08:57:16.813Z,1002.23
2022-11-21T08:58:16.773Z,1002.22
2022-11-21T08:59:19.070Z,1002.19
2022-11-21T09:00:16.686Z,1002.20
2022-11-21T09:01:16.741Z,1002.22
2022-11-21T09:02:16.627Z,1002.22
2022-11-21T09:03:21.459Z,1002.22
2022-11-21T09:04:16.540Z,1002.21
2022-11-21T09:05:16.577Z,1002.23
2022-11-21T09:06:16.455Z,1002.23
2022-11-21T09:07:16.456Z,1002.23
2022-11-21T09:08:16.386Z,1002.22
2022-11-21T09:09:20.696Z,1002.23
2022-11-21T09:10:16.303Z,1002.19
2022-11-21T09:11:16.319Z,1002.21
2022-11-21T09:12:16.278Z,1002.20
2022-11-21T09:13:16.189Z,1002.20
2022-11-21T09:14:16.142Z,1002.19
2022-11-21T09:15:16.105Z,1002.24
2022-11-21T09:16:20.256Z,1002.20
2022-11-21T09:17:16.104Z,1002.27
2022-11-21T09:18:15.992Z,1002.21
2022-11-21T09:19:15.957Z,1002.23
2022-11-21T09:20:16.030Z,1002.25
2022-11-21T09:21:15.880Z,1002.25
2022-11-21T09:22:15.840Z,1002.28
2022-11-21T09:23:15.853Z,1002.28
2022-11-21T09:24:15.756Z,1002.27
2022-11-21T09:25:15.737Z,1002.29
2022-11-21T09:26:15.686Z,1002.32
2022-11-21T09:27:15.639Z,1002.35
2022-11-21T09:28:15.655Z,1002.29
2022-11-21T09:29:15.620Z,1002.29
2022-11-21T09:30:15.532Z,1002.30
2022-11-21T09:31:15.499Z,1002.28
2022-11-21T09:32:15.456Z,1002.30
2022-11-21T09:33:15.425Z,1002.28
2022-11-21T09:34:15.442Z,1002.29
2022-11-21T09:35:15.334Z,1002.32
2022-11-21T09:36:15.292Z,1002.29
2022-11-21T09:37:15.253Z,1002.29
2022-11-21T09:38:17.520Z,1002.31
2022-11-21T09:39:15.221Z,1002.28
2022-11-21T09:40:15.208Z,1002.31
2022-11-21T09:41:15.110Z,1002.31
2022-11-21T09:42:15.066Z,1002.32
2022-11-21T09:43:15.029Z,1002.35
2022-11-21T09:44:14.992Z,1002.41
2022-11-21T09:45:14.950Z,1002.41
2022-11-21T09:46:15.036Z,1002.42
2022-11-21T09:47:14.868Z,1002.42
2022-11-21T09:48:14.835Z,1002.41
2022-11-21T09:49:14.802Z,1002.39
2022-11-21T09:50:14.773Z,1002.38
2022-11-21T09:51:14.758Z,1002.41
2022-11-21T09:52:14.741Z,1002.39
2022-11-21T09:53:14.639Z,1002.36
2022-11-21T09:54:14.599Z,1002.37
2022-11-21T09:55:14.557Z,1002.39
2022-11-21T09:56:14.530Z,1002.32
2022-11-21T09:57:14.484Z,1002.33
2022-11-21T09:58:14.502Z,1002.36
2022-11-21T09:59:14.416Z,1002.39
2022-11-21T10:00:14.379Z,1002.41
2022-11-21T10:01:14.500Z,1002.39
2022-11-21T10:02:14.300Z,1002.40
2022-11-21T10:03:17.970Z,1002.41
2022-11-21T10:04:14.277Z,1002.45
2022-11-21T10:05:14.186Z,1002.41
2022-11-21T10:06:14.151Z,1002.44
2022-11-21T10:07:14.198Z,1002.43
2022-11-21T10:08:14.081Z,1002.43
2022-11-21T10:09:14.038Z,1002.47
2022-11-21T10:10:14.065Z,1002.45
2022-11-21T10:11:19.520Z,1002.45
2022-11-21T10:12:13.924Z,1002.51
2022-11-21T10:13:13.893Z,1002.55
2022-11-21T10:14:13.849Z,1002.60
2022-11-21T10:15:13.819Z,1002.58
2022-11-21T10:16:13.846Z,1002.58
2022-11-21T10:17:13.743Z,1002.61
2022-11-21T10:18:13.701Z,1002.60
2022-11-21T10:19:13.684Z,1002.62
2022-11-21T10:20:13.619Z,1002.66
2022-11-21T10:21:13.619Z,1002.66
2022-11-21T10:22:13.634Z,1002.68
2022-11-21T10:23:13.504Z,1002.69
2022-11-21T10:24:13.477Z,1002.68
2022-11-21T10:25:13.443Z,1002.68
2022-11-21T10:26:13.519Z,1002.65
2022-11-21T10:27:13.372Z,1002.64
2022-11-21T10:28:13.384Z,1002.65
2022-11-21T10:29:13.287Z,1002.64
2022-11-21T10:30:13.254Z,1002.64
2022-11-21T10:31:13.215Z,1002.69
2022-11-21T10:32:13.169Z,1002.69
2022-11-21T10:33:13.140Z,1002.64
2022-11-21T10:34:13.157Z,1002.69
2022-11-21T10:35:13.070Z,1002.68
2022-11-21T10:36:13.063Z,1002.66
2022-11-21T10:37:12.982Z,1002.71
2022-11-21T10:38:12.959Z,1002.71
2022-11-21T10:39:12.908Z,1002.71
2022-11-21T10:40:12.946Z,1002.73
2022-11-21T10:41:12.844Z,1002.76
2022-11-21T10:42:12.800Z,1002.73
2022-11-21T10:43:12.758Z,1002.78
2022-11-21T10:44:12.728Z,1002.78
2022-11-21T10:45:12.696Z,1002.80
2022-11-21T10:46:12.705Z,1002.80
2022-11-21T10:47:12.611Z,1002.77
2022-11-21T10:48:13.307Z,1002.80
2022-11-21T10:49:12.542Z,1002.77
2022-11-21T10:50:12.502Z,1002.74
2022-11-21T10:51:12.469Z,1002.75
2022-11-21T10:52:12.489Z,1002.77
2022-11-21T10:53:12.394Z,1002.78
2022-11-21T10:54:12.433Z,1002.81
2022-11-21T10:55:12.315Z,1002.76
2022-11-21T10:56:12.274Z,1002.75
2022-11-21T10:57:12.279Z,1002.75
2022-11-21T10:58:12.256Z,1002.76
2022-11-21T10:59:12.164Z,1002.80
2022-11-21T11:00:12.129Z,1002.83
2022-11-21T11:01:12.130Z,1002.79
2022-11-21T11:02:12.051Z,1002.79
2022-11-21T11:03:12.080Z,1002.79
2022-11-21T11:04:29.043Z,1002.78
2022-11-21T11:05:11.993Z,1002.76
2022-11-21T11:06:11.898Z,1002.77
2022-11-21T11:07:11.902Z,1002.76
2022-11-21T11:08:11.822Z,1002.73
2022-11-21T11:09:11.815Z,1002.75
2022-11-21T11:10:11.813Z,1002.76
2022-11-21T11:11:11.739Z,1002.77
2022-11-21T11:12:11.684Z,1002.75
2022-11-21T11:14:11.612Z,1002.77
2022-11-21T11:15:11.569Z,1002.77
2022-11-21T11:16:11.599Z,1002.79
2022-11-21T11:17:11.492Z,1002.78
2022-11-21T11:18:11.462Z,1002.79
2022-11-21T11:19:11.417Z,1002.83
2022-11-21T11:20:11.383Z,1002.80
2022-11-21T11:21:11.345Z,1002.81
2022-11-21T11:22:11.371Z,1002.78
2022-11-21T11:23:11.275Z,1002.84
2022-11-21T11:24:11.233Z,1002.80
2022-11-21T11:25:11.201Z,1002.84
2022-11-21T11:26:11.167Z,1002.79
2022-11-21T11:27:11.128Z,1002.78
2022-11-21T11:28:11.158Z,1002.80
2022-11-21T11:29:11.052Z,1002.77
2022-11-21T11:30:11.012Z,1002.76
2022-11-21T11:31:10.979Z,1002.75
2022-11-21T11:32:10.938Z,1002.75
2022-11-21T11:33:11.706Z,1002.77
2022-11-21T11:34:10.931Z,1002.79
2022-11-21T11:35:10.827Z,1002.78
2022-11-21T11:36:10.797Z,1002.79
2022-11-21T11:37:10.762Z,1002.76
2022-11-21T11:38:10.716Z,1002.71
2022-11-21T11:39:10.681Z,1002.72
2022-11-21T11:40:10.700Z,1002.71
2022-11-21T11:41:10.615Z,1002.72
2022-11-21T11:42:16.400Z,1002.70
2022-11-21T11:43:10.539Z,1002.76
2022-11-21T11:44:10.497Z,1002.70
2022-11-21T11:45:10.463Z,1002.76
2022-11-21T11:46:10.473Z,1002.76
2022-11-21T11:47:10.387Z,1002.79
2022-11-21T11:48:10.348Z,1002.79
2022-11-21T11:49:20.911Z,1002.82
2022-11-21T11:50:10.291Z,1002.83
2022-11-21T11:51:12.709Z,1002.79
2022-11-21T11:52:10.262Z,1002.77
2022-11-21T11:53:10.171Z,1002.80
2022-11-21T11:54:10.144Z,1002.83
2022-11-21T11:55:10.157Z,1002.79
2022-11-21T11:56:10.100Z,1002.79
2022-11-21T11:57:10.022Z,1002.74
2022-11-21T11:58:09.979Z,1002.80
2022-11-21T11:59:09.955Z,1002.77
2022-11-21T12:00:09.966Z,1002.75
2022-11-21T12:01:09.880Z,1002.73
2022-11-21T12:02:12.031Z,1002.71
2022-11-21T12:03:09.804Z,1002.70
2022-11-21T12:04:09.761Z,1002.72
2022-11-21T12:05:09.752Z,1002.67
2022-11-21T12:06:09.786Z,1002.67